In Rescue
 
Open Full Screen Window  High Contrast Mode
Wind Gusting 00 knots
11
November 29, 2022 8:13 AM CST
Weather Information
Wind Direction
  300 °
Wind Speed
  11 kt (13 mph)
Wind Gust
  00 kt (0 mph)
Altimeter
29.72 in
Visibility
10 SM
Temperature
-05° C
23° F
Dewpoint
-10° C
14° F
Humidity
68%
1hr Rain Fall
00.00 in.
24hr Rain Fall
00.00 in.
Sky Condition
Overcast @ 9,000 ft
Broken @ 7,000 ft
VFR

METAR KD39 291413Z AUTO 30011KT 10SM BKN070 OVC090 M05/M10 A2972 RMK AO2 T10551105

FAA Disclaimer: The data displayed is for advisory purposes only and is not to be used for flight planning or operations.